Terminal Aerodrome Forecast
Issued by NWS

Home | Current Version | Previous Version | Text Only | Print | Product List | Glossary On
Versions: 1 2 3 4 5 6 7 8 9 10 11 12 13 14 15 16 17
605
FTUS45 KRIW 181123
TAFCPR
TAF
KCPR 181123Z 1812/1912 22026G36KT P6SM BKN200
     FM190100 23014G24KT P6SM BKN200=

USA.gov is the U.S. government's official web portal to all federal, state and local government web resources and services.